Klodzko, Poland

8:33 PM CEST on August 25, 2016 (GMT +0200)
Kolejowa | | Change Station

Elev 1000 ft 50.44 °N, 16.66 °E | Updated 7 minutes ago

Clear
Clear
68.0 °F
Feels Like 68.0 °F
N
0.6
Wind Variable Wind from West
Gusts 1.2 mph

Today
High -- | Low -- °F
--% Chance of Precip.
Yesterday
High -- | Low -- °F
Precip. -- in
Pressure 30.21 in
Visibility -9999.0 miles
Clouds
Dew Point 56 °F
Humidity 66%
Rainfall 0.00 in
Snow Depth Not available.
5:57 AM 7:52 PM
Last Quarter, 43% visible
METAR EPWR 251830Z 15005KT CAVOK 20/13 Q1023
Pressure 30.21 in
Visibility -9999.0 miles
Clouds
Dew Point 56 °F
Humidity 66%
Rainfall 0.00 in
Snow Depth Not available.
5:57 AM 7:52 PM
Last Quarter, 43% visible
METAR EPWR 251830Z 15005KT CAVOK 20/13 Q1023

10-Day Weather Forecast

×

Almanac

Astronomy

Aug. 25, 2016 Rise Set
Actual Time
Civil Twilight
Nautical Twilight
Astronomical Twilight
Moon
Length of Visible Light
Length of Day
Tomorrow will be .
, % of the Moon is Illuminated

Today's Extremes

Country Highs Country Lows

Community

WunderPhotos

Upload Photos

1,934,889 photos uploaded!

WunderBlog® & News

Nearby

Air Quality

  Air Quality AQ Index Pollutant
Not available.

Snow Depth

Station Depth Elevation

Earthquake Activity

City Distance Mag. Time & Date
Minimum magnitude displayed is 2.5.

Coastal Water Temperatures

Place Temperature

Stations

Nearby Weather Stations

Station Location Temp. Windchill Dew Point Humidity Wind Precip. Elev Updated Type